createdAt,value
2023-05-02T00:00:25.693Z,29.90
2023-05-02T00:03:28.030Z,31.38
2023-05-02T00:06:31.388Z,26.42
2023-05-02T00:09:33.715Z,28.17
2023-05-02T00:12:37.346Z,29.80
2023-05-02T00:15:39.548Z,27.00
2023-05-02T00:18:41.801Z,35.83
2023-05-02T00:21:44.021Z,30.05
2023-05-02T00:24:46.233Z,29.52
2023-05-02T00:27:51.175Z,30.50
2023-05-02T00:30:53.800Z,29.48
2023-05-02T00:33:56.442Z,29.77
2023-05-02T00:36:58.826Z,31.40
2023-05-02T00:40:01.481Z,32.05
2023-05-02T00:43:05.351Z,30.33
2023-05-02T00:46:08.452Z,28.23
2023-05-02T00:49:10.821Z,33.45
2023-05-02T00:52:13.253Z,34.30
2023-05-02T00:55:15.717Z,33.38
2023-05-02T00:58:21.279Z,33.92
2023-05-02T01:01:33.266Z,32.65
2023-05-02T01:08:04.969Z,31.55
2023-05-02T01:11:15.042Z,34.42
2023-05-02T01:14:18.831Z,33.40
2023-05-02T01:17:23.336Z,37.75
2023-05-02T01:20:27.978Z,35.13
2023-05-02T01:23:39.835Z,35.88
2023-05-02T01:26:48.209Z,39.55
2023-05-02T01:29:53.049Z,35.50
2023-05-02T01:32:57.976Z,41.85
2023-05-02T01:36:00.959Z,40.13
2023-05-02T01:39:04.240Z,45.58
2023-05-02T01:42:06.644Z,40.40
2023-05-02T01:45:12.111Z,43.63
2023-05-02T01:48:15.592Z,41.15
2023-05-02T01:51:19.274Z,50.25
2023-05-02T01:54:23.422Z,47.25
2023-05-02T01:57:26.433Z,46.75
2023-05-02T02:00:31.596Z,50.30
2023-05-02T02:03:33.963Z,51.03
2023-05-02T02:06:36.331Z,50.22
2023-05-02T02:09:38.576Z,51.95
2023-05-02T02:12:42.738Z,47.88
2023-05-02T02:15:48.422Z,52.78
2023-05-02T02:18:55.274Z,49.72
2023-05-02T02:21:58.557Z,47.83
2023-05-02T02:25:01.409Z,51.30
2023-05-02T02:28:07.058Z,48.65
2023-05-02T02:31:10.948Z,45.03
2023-05-02T02:34:13.229Z,44.85
2023-05-02T02:37:18.661Z,48.65
2023-05-02T02:40:24.033Z,49.20
2023-05-02T02:43:32.596Z,47.13
2023-05-02T02:46:49.003Z,47.42
2023-05-02T02:49:54.951Z,40.95
2023-05-02T02:53:00.719Z,37.08
2023-05-02T02:56:06.298Z,36.70
2023-05-02T02:59:14.952Z,42.45
2023-05-02T03:02:19.953Z,37.45
2023-05-02T03:05:22.792Z,44.70
2023-05-02T03:08:25.973Z,39.78
2023-05-02T03:11:29.602Z,41.42
2023-05-02T03:14:33.128Z,41.97
2023-05-02T03:17:36.730Z,37.03
2023-05-02T03:20:39.109Z,41.38
2023-05-02T03:23:41.398Z,40.65
2023-05-02T03:26:44.365Z,36.20
2023-05-02T03:29:48.997Z,36.00
2023-05-02T03:32:54.512Z,38.38
2023-05-02T03:35:57.585Z,37.75
2023-05-02T03:39:00.316Z,34.15
2023-05-02T03:42:05.624Z,36.75
2023-05-02T03:45:08.927Z,36.40
2023-05-02T03:48:12.591Z,33.15
2023-05-02T03:51:15.239Z,37.40
2023-05-02T03:54:20.369Z,32.83
2023-05-02T03:57:23.214Z,33.63
2023-05-02T04:00:25.610Z,32.92
2023-05-02T04:03:36.521Z,32.15
2023-05-02T04:06:39.662Z,32.10
2023-05-02T04:09:44.011Z,34.95
2023-05-02T04:12:47.682Z,31.88
2023-05-02T04:15:50.783Z,34.05
2023-05-02T04:18:58.199Z,34.90
2023-05-02T04:22:02.182Z,35.67
2023-05-02T04:25:08.953Z,35.35
2023-05-02T04:28:14.120Z,33.45
2023-05-02T04:31:16.551Z,35.83
2023-05-02T04:34:21.909Z,37.90
2023-05-02T04:37:25.517Z,37.40
2023-05-02T04:40:27.942Z,34.28
2023-05-02T04:43:36.322Z,35.63
2023-05-02T04:46:39.498Z,34.63
2023-05-02T04:49:43.347Z,36.28
2023-05-02T04:52:45.655Z,33.70
2023-05-02T04:55:47.997Z,40.97
2023-05-02T04:58:51.413Z,31.58
2023-05-02T05:01:53.589Z,31.88
2023-05-02T05:04:57.247Z,32.33
2023-05-02T05:07:59.720Z,31.98
2023-05-02T05:11:06.710Z,30.48
2023-05-02T05:14:09.593Z,31.02
2023-05-02T05:17:14.600Z,29.17
2023-05-02T05:20:19.947Z,28.95
2023-05-02T05:23:25.019Z,31.15
2023-05-02T05:26:27.489Z,28.73
2023-05-02T05:29:31.665Z,29.83
2023-05-02T05:32:35.815Z,26.92
2023-05-02T05:35:39.623Z,28.73
2023-05-02T05:38:42.049Z,29.05
2023-05-02T05:41:48.042Z,28.98
2023-05-02T05:44:53.784Z,30.15
2023-05-02T05:47:56.908Z,29.48
2023-05-02T05:51:05.809Z,22.73
2023-05-02T05:54:09.119Z,31.98
2023-05-02T05:57:12.338Z,27.08
2023-05-02T06:00:16.852Z,27.35
2023-05-02T06:03:22.283Z,24.23
2023-05-02T06:06:27.444Z,23.08
2023-05-02T06:09:29.776Z,24.15
2023-05-02T06:12:32.212Z,29.83
2023-05-02T06:15:37.820Z,27.15
2023-05-02T06:18:41.604Z,22.00
2023-05-02T06:21:45.416Z,24.48
2023-05-02T06:24:47.907Z,26.25
2023-05-02T06:27:50.741Z,27.67
2023-05-02T06:30:57.833Z,27.45
2023-05-02T06:34:00.268Z,25.17
2023-05-02T06:37:04.043Z,27.05
2023-05-02T06:40:07.796Z,24.33
2023-05-02T06:43:10.409Z,26.63
2023-05-02T06:46:12.793Z,26.40
2023-05-02T06:49:15.319Z,27.08
2023-05-02T06:52:19.475Z,25.48
2023-05-02T06:55:21.961Z,23.63
2023-05-02T06:58:24.497Z,26.77
2023-05-02T07:01:26.831Z,24.75
2023-05-02T07:04:29.235Z,20.38
2023-05-02T07:07:32.838Z,22.30
2023-05-02T07:10:35.188Z,21.08
2023-05-02T07:13:37.450Z,22.27
2023-05-02T07:16:39.896Z,23.55
2023-05-02T07:19:43.886Z,17.92
2023-05-02T07:22:49.025Z,17.95
2023-05-02T07:25:51.392Z,16.30
2023-05-02T07:28:53.875Z,14.35
2023-05-02T07:31:56.771Z,12.52
2023-05-02T07:34:59.022Z,13.93
2023-05-02T07:38:02.773Z,14.15
2023-05-02T07:41:05.186Z,14.88
2023-05-02T07:44:07.492Z,11.02
2023-05-02T07:47:09.923Z,14.60
2023-05-02T07:50:12.225Z,14.50
2023-05-02T07:53:17.493Z,17.42
2023-05-02T07:56:19.757Z,20.00
2023-05-02T07:59:21.924Z,26.23
2023-05-02T08:02:25.057Z,24.73
2023-05-02T08:05:27.666Z,21.80
2023-05-02T08:08:32.436Z,17.45
2023-05-02T08:11:34.650Z,19.25
2023-05-02T08:14:37.026Z,17.52
2023-05-02T08:17:39.594Z,19.95
2023-05-02T08:20:43.414Z,16.98
2023-05-02T08:23:48.015Z,15.73
2023-05-02T08:26:50.776Z,10.48
2023-05-02T08:29:53.162Z,10.55
2023-05-02T08:32:55.509Z,10.88
2023-05-02T08:35:57.767Z,9.35
2023-05-02T08:39:03.669Z,7.55
2023-05-02T08:42:07.210Z,4.95
2023-05-02T08:45:12.287Z,3.20
2023-05-02T08:48:17.320Z,4.75
2023-05-02T08:54:29.152Z,6.55
2023-05-02T08:57:31.585Z,7.13
2023-05-02T09:00:37.389Z,4.10
2023-05-02T09:03:39.885Z,5.30
2023-05-02T09:06:42.376Z,6.47
2023-05-02T09:09:46.333Z,2.83
2023-05-02T09:12:48.583Z,3.75
2023-05-02T09:15:57.596Z,12.43
2023-05-02T09:18:59.925Z,10.13
2023-05-02T09:22:02.989Z,10.65
2023-05-02T09:25:07.720Z,9.93
2023-05-02T09:28:10.147Z,9.60
2023-05-02T09:31:16.798Z,10.77
2023-05-02T09:34:21.901Z,13.00
2023-05-02T09:37:36.534Z,12.40
2023-05-02T09:40:53.806Z,16.27
2023-05-02T09:43:57.426Z,11.65
2023-05-02T09:47:02.147Z,13.35
2023-05-02T09:50:06.405Z,13.65
2023-05-02T09:53:09.913Z,13.07
2023-05-02T09:56:13.657Z,9.77
2023-05-02T09:59:16.604Z,11.15
2023-05-02T10:02:19.521Z,11.73
2023-05-02T10:05:22.012Z,12.00
2023-05-02T10:08:27.386Z,8.13
2023-05-02T10:11:31.865Z,7.60
2023-05-02T10:14:39.832Z,11.73
2023-05-02T10:17:47.567Z,11.13
2023-05-02T10:20:57.028Z,8.95
2023-05-02T10:24:02.103Z,12.52
2023-05-02T10:27:05.861Z,9.25
2023-05-02T10:30:09.264Z,13.10
2023-05-02T10:33:13.711Z,9.25
2023-05-02T10:36:16.081Z,10.90
2023-05-02T10:39:19.660Z,13.55
2023-05-02T10:42:23.733Z,6.88
2023-05-02T10:45:33.057Z,6.80
2023-05-02T10:48:35.623Z,5.30
2023-05-02T10:51:39.275Z,7.43
2023-05-02T10:54:41.805Z,8.77
2023-05-02T10:58:21.461Z,3.83
2023-05-02T11:01:37.694Z,8.90
2023-05-02T11:04:59.949Z,10.45
2023-05-02T11:08:31.082Z,10.20
2023-05-02T11:11:43.012Z,8.77
2023-05-02T11:14:47.835Z,7.30
2023-05-02T11:18:01.713Z,8.80
2023-05-02T11:21:25.265Z,9.02
2023-05-02T11:24:40.465Z,6.80
2023-05-02T11:27:44.528Z,6.35
2023-05-02T11:30:50.937Z,8.15
2023-05-02T11:33:57.615Z,6.25
2023-05-02T11:37:00.010Z,7.00
2023-05-02T11:40:12.221Z,6.40
2023-05-02T11:43:16.147Z,8.75
2023-05-02T11:46:20.306Z,6.25
2023-05-02T11:49:24.102Z,5.72
2023-05-02T11:52:26.789Z,7.82
2023-05-02T11:55:29.791Z,8.52
2023-05-02T11:58:33.560Z,9.63
2023-05-02T12:01:36.574Z,6.95
2023-05-02T12:04:46.982Z,5.97
2023-05-02T12:07:49.401Z,5.78
2023-05-02T12:10:53.202Z,4.40
2023-05-02T12:13:55.796Z,5.53
2023-05-02T12:16:58.858Z,6.30
2023-05-02T12:20:03.142Z,4.50
2023-05-02T12:23:07.053Z,5.68
2023-05-02T12:26:20.098Z,4.07
2023-05-02T12:29:22.504Z,7.88
2023-05-02T12:32:32.601Z,7.70
2023-05-02T12:35:36.633Z,9.13
2023-05-02T12:38:39.440Z,5.88
2023-05-02T12:41:45.885Z,5.47
2023-05-02T12:44:49.293Z,8.70
2023-05-02T12:47:51.812Z,6.78
2023-05-02T12:50:55.623Z,7.28
2023-05-02T12:53:58.162Z,4.07
2023-05-02T12:57:03.029Z,4.82
2023-05-02T13:00:07.040Z,6.88
2023-05-02T13:03:10.523Z,6.97
2023-05-02T13:06:14.258Z,10.27
2023-05-02T13:09:16.989Z,4.85
2023-05-02T13:12:19.307Z,7.85
2023-05-02T13:15:21.673Z,5.35
2023-05-02T13:18:25.082Z,4.38
2023-05-02T13:21:28.747Z,5.90
2023-05-02T13:24:31.149Z,4.22
2023-05-02T13:27:34.244Z,5.68
2023-05-02T13:30:36.613Z,8.15
2023-05-02T13:33:38.927Z,4.63
2023-05-02T13:36:46.281Z,5.18
2023-05-02T13:39:48.788Z,7.88
2023-05-02T13:42:51.187Z,4.65
2023-05-02T13:45:53.422Z,4.63
2023-05-02T13:48:55.748Z,5.72
2023-05-02T13:51:59.456Z,6.18
2023-05-02T13:55:04.870Z,5.57
2023-05-02T13:58:07.345Z,7.03
2023-05-02T14:01:09.668Z,5.53
2023-05-02T14:04:12.311Z,5.30
2023-05-02T14:07:16.033Z,7.35
2023-05-02T14:10:18.277Z,5.38
2023-05-02T14:13:20.526Z,5.05
2023-05-02T14:16:22.919Z,4.78
2023-05-02T14:19:25.178Z,5.68
2023-05-02T14:22:28.920Z,3.17
2023-05-02T14:25:31.189Z,8.10
2023-05-02T14:28:33.502Z,5.53
2023-05-02T14:31:36.057Z,2.95
2023-05-02T14:34:38.394Z,4.32
2023-05-02T14:37:44.959Z,6.35
2023-05-02T14:40:47.194Z,7.13
2023-05-02T14:43:51.282Z,4.63
2023-05-02T14:46:54.759Z,3.85
2023-05-02T14:49:58.505Z,4.43
2023-05-02T14:53:02.287Z,4.72
2023-05-02T14:56:12.192Z,4.93
2023-05-02T14:59:14.456Z,5.82
2023-05-02T15:02:16.862Z,5.38
2023-05-02T15:05:19.424Z,3.15
2023-05-02T15:08:23.127Z,3.72
2023-05-02T15:11:25.613Z,6.00
2023-05-02T15:14:28.118Z,7.10
2023-05-02T15:17:30.368Z,4.93
2023-05-02T15:20:32.684Z,4.10
2023-05-02T15:23:36.707Z,7.18
2023-05-02T15:26:40.428Z,2.05
2023-05-02T15:29:42.768Z,3.95
2023-05-02T15:32:45.078Z,6.00
2023-05-02T15:35:55.036Z,5.65
2023-05-02T15:38:58.794Z,5.35
2023-05-02T15:42:04.691Z,3.22
2023-05-02T15:45:07.829Z,5.18
2023-05-02T15:48:10.119Z,5.45
2023-05-02T15:51:13.669Z,3.22
2023-05-02T15:54:17.752Z,4.78
2023-05-02T15:57:21.122Z,6.18
2023-05-02T16:00:23.475Z,3.63
2023-05-02T16:03:25.879Z,2.67
2023-05-02T16:06:29.222Z,2.78
2023-05-02T16:09:32.866Z,6.32
2023-05-02T16:12:36.185Z,16.85
2023-05-02T16:15:38.614Z,6.50
2023-05-02T16:18:40.822Z,7.03
2023-05-02T16:21:45.835Z,2.63
2023-05-02T16:24:49.424Z,4.18
2023-05-02T16:27:51.789Z,4.05
2023-05-02T16:30:54.219Z,3.83
2023-05-02T16:33:58.048Z,4.20
2023-05-02T16:37:03.180Z,4.10
2023-05-02T16:40:09.052Z,3.25
2023-05-02T16:43:11.538Z,4.93
2023-05-02T16:46:16.022Z,6.43
2023-05-02T16:49:18.439Z,4.57
2023-05-02T16:52:21.302Z,7.55
2023-05-02T16:55:24.929Z,4.13
2023-05-02T16:58:28.701Z,6.13
2023-05-02T17:01:31.309Z,5.95
2023-05-02T17:04:33.663Z,5.47
2023-05-02T17:07:37.085Z,6.28
2023-05-02T17:10:40.727Z,5.30
2023-05-02T17:13:43.819Z,7.05
2023-05-02T17:16:46.205Z,4.50
2023-05-02T17:19:48.580Z,5.80
2023-05-02T17:22:51.226Z,4.18
2023-05-02T17:25:55.036Z,4.97
2023-05-02T17:28:57.331Z,3.45
2023-05-02T17:32:02.514Z,3.75
2023-05-02T17:35:06.527Z,6.35
2023-05-02T17:38:08.833Z,6.00
2023-05-02T17:41:12.944Z,4.07
2023-05-02T17:44:16.380Z,4.93
2023-05-02T17:47:19.769Z,5.13
2023-05-02T17:50:22.474Z,4.72
2023-05-02T17:53:26.178Z,4.72
2023-05-02T17:56:30.127Z,5.88
2023-05-02T17:59:32.412Z,6.70
2023-05-02T18:02:36.840Z,3.13
2023-05-02T18:05:39.695Z,7.57
2023-05-02T18:08:41.973Z,3.80
2023-05-02T18:11:45.643Z,2.53
2023-05-02T18:14:48.962Z,6.30
2023-05-02T18:17:51.511Z,4.72
2023-05-02T18:20:53.851Z,3.35
2023-05-02T18:23:57.747Z,4.10
2023-05-02T18:27:01.668Z,5.72
2023-05-02T18:30:04.787Z,5.07
2023-05-02T18:33:08.098Z,4.78
2023-05-02T18:36:11.213Z,7.70
2023-05-02T18:39:14.217Z,6.93
2023-05-02T18:42:17.802Z,3.60
2023-05-02T18:45:21.108Z,7.85
2023-05-02T18:48:23.303Z,10.63
2023-05-02T18:51:25.700Z,7.47
2023-05-02T18:54:28.689Z,6.20
2023-05-02T18:57:33.802Z,8.60
2023-05-02T19:00:37.376Z,5.30
2023-05-02T19:03:40.209Z,7.82
2023-05-02T19:06:43.081Z,5.55
2023-05-02T19:09:45.711Z,5.70
2023-05-02T19:12:49.611Z,6.63
2023-05-02T19:15:52.309Z,5.00
2023-05-02T19:18:55.947Z,5.55
2023-05-02T19:21:59.895Z,7.30
2023-05-02T19:25:02.691Z,8.02
2023-05-02T19:28:08.591Z,7.07
2023-05-02T19:31:12.420Z,5.05
2023-05-02T19:34:15.134Z,9.75
2023-05-02T19:37:17.710Z,7.03
2023-05-02T19:40:21.046Z,6.45
2023-05-02T19:43:25.600Z,5.38
2023-05-02T19:46:30.865Z,6.97
2023-05-02T19:49:33.858Z,11.13
2023-05-02T19:52:39.034Z,8.40
2023-05-02T19:55:41.568Z,5.10
2023-05-02T19:58:45.367Z,9.65
2023-05-02T20:01:47.889Z,6.70
2023-05-02T20:04:50.531Z,6.35
2023-05-02T20:07:53.071Z,7.55
2023-05-02T20:10:55.950Z,6.28
2023-05-02T20:14:00.822Z,4.65
2023-05-02T20:17:04.786Z,7.38
2023-05-02T20:20:10.654Z,9.00
2023-05-02T20:23:13.412Z,7.82
2023-05-02T20:26:17.889Z,8.93
2023-05-02T20:29:21.834Z,6.32
2023-05-02T20:32:25.403Z,9.52
2023-05-02T20:35:29.664Z,6.38
2023-05-02T20:38:32.141Z,11.13
2023-05-02T20:41:36.302Z,6.97
2023-05-02T20:44:40.780Z,7.68
2023-05-02T20:47:43.314Z,9.68
2023-05-02T20:50:53.504Z,9.25
2023-05-02T20:53:56.746Z,10.63
2023-05-02T20:56:59.342Z,9.60
2023-05-02T21:00:04.634Z,8.73
2023-05-02T21:03:07.593Z,9.70
2023-05-02T21:06:10.315Z,7.28
2023-05-02T21:09:13.120Z,8.60
2023-05-02T21:12:16.032Z,7.70
2023-05-02T21:15:20.004Z,8.18
2023-05-02T21:18:22.750Z,10.93
2023-05-02T21:21:25.368Z,11.80
2023-05-02T21:24:28.371Z,8.60
2023-05-02T21:27:31.192Z,7.07
2023-05-02T21:30:36.864Z,15.80
2023-05-02T21:33:39.652Z,8.98
2023-05-02T21:36:43.345Z,7.85
2023-05-02T21:39:46.064Z,5.43
2023-05-02T21:42:48.602Z,8.20
2023-05-02T21:45:52.458Z,13.95
2023-05-02T21:48:54.842Z,5.85
2023-05-02T21:51:58.934Z,7.28
2023-05-02T21:55:01.412Z,9.13
2023-05-02T21:58:04.065Z,8.63
2023-05-02T22:01:08.045Z,9.55
2023-05-02T22:04:10.969Z,8.52
2023-05-02T22:07:13.486Z,11.60
2023-05-02T22:10:16.220Z,8.07
2023-05-02T22:13:19.433Z,9.10
2023-05-02T22:16:23.327Z,14.05
2023-05-02T22:19:25.898Z,8.10
2023-05-02T22:22:28.371Z,6.47
2023-05-02T22:25:31.002Z,10.65
2023-05-02T22:28:33.397Z,7.75
2023-05-02T22:31:37.131Z,8.82
2023-05-02T22:34:39.602Z,6.97
2023-05-02T22:37:42.072Z,6.95
2023-05-02T22:40:44.545Z,8.73
2023-05-02T22:43:48.412Z,7.35
2023-05-02T22:46:52.949Z,7.78
2023-05-02T22:49:59.559Z,5.25
2023-05-02T22:53:04.196Z,5.10
2023-05-02T22:56:07.293Z,7.05
2023-05-02T22:59:10.168Z,5.28
2023-05-02T23:02:13.979Z,7.90
2023-05-02T23:05:16.628Z,7.97
2023-05-02T23:08:19.098Z,7.43
2023-05-02T23:11:21.509Z,4.00
2023-05-02T23:14:23.975Z,6.00
2023-05-02T23:17:27.898Z,6.55
2023-05-02T23:20:30.385Z,6.13
2023-05-02T23:24:02.000Z,5.35
2023-05-02T23:27:22.639Z,9.18
2023-05-02T23:30:24.900Z,6.07
2023-05-02T23:33:29.631Z,4.85
2023-05-02T23:36:32.640Z,5.35
2023-05-02T23:39:34.882Z,7.75
2023-05-02T23:42:40.135Z,7.25
2023-05-02T23:45:42.750Z,7.53
2023-05-02T23:48:46.255Z,5.68
2023-05-02T23:51:48.481Z,6.07
2023-05-02T23:54:52.267Z,5.07
2023-05-02T23:57:54.504Z,8.55
